Terminal Aerodrome Forecast
Issued by NWS Jackson, MS

Current Version | Previous Version | Text Only | Print | Product List | Glossary On
Versions: 1 2 3 4 5 6 7 8 9 10 11 12 13 14
882
FTUS44 KMEG 231735
TAFTUP
TAF
KTUP 231735Z 2318/2418 VRB05KT P6SM VCTS SCT040CB BKN120
      TEMPO 2318/2322 VRB10G25KT 3SM -TSRA BR BKN025CB OVC060
     FM240200 VRB03KT P6SM VCTS BKN035CB BKN150
     FM241500 20006KT P6SM VCTS BKN035CB BKN250=

USA.gov is the U.S. government's official web portal to all federal, state and local government web resources and services.